WMT723 LATI-EDDN
Flight info
| Callsign | WMT723 |
|---|---|
| Flight time | 1h 41m |
| Altitude | 36000 |
| Route | INLOT DCT RETRA DCT POD DCT NIK DCT GACMO DCT EDALA DCT KOMAR DCT PODET DCT NEMAL DCT SIMBA DCT AKINI/N0421F300 Z109 UPALA UPALA1V |
| Aircraft | A321/M-SDE3FGHIRWY/LB1 |
Departure
| Time | 2026-05-07 20:54 |
|---|---|
| Airport | Tirana International Airport Mother Teresa (LATI) |
Arrival
| Time | 2026-05-07 22:35 |
|---|---|
| Airport | Nuremberg Airport (EDDN) |
| Time | Latitude | Longitude | Altitude | Speed | Heading |
|---|---|---|---|---|---|
| 2026-05-07 20:40 | 41.42065 | 19.71499 | 122 ft | 0 kts | 264° |
| 2026-05-07 20:47 | 41.42066 | 19.71527 | 120 ft | 4 kts | 279° |
| 2026-05-07 20:47 | 41.42057 | 19.71558 | 118 ft | 4 kts | 321° |
| 2026-05-07 20:47 | 41.42041 | 19.71568 | 118 ft | 0 kts | 354° |
| 2026-05-07 20:50 | 41.42079 | 19.71563 | 119 ft | 9 kts | 356° |
| 2026-05-07 20:50 | 41.42123 | 19.71558 | 117 ft | 10 kts | 354° |
| 2026-05-07 20:50 | 41.42201 | 19.71547 | 120 ft | 12 kts | 354° |
| 2026-05-07 20:50 | 41.42293 | 19.71535 | 120 ft | 14 kts | 355° |
| 2026-05-07 20:51 | 41.42391 | 19.71522 | 116 ft | 13 kts | 353° |
| 2026-05-07 20:51 | 41.42473 | 19.71510 | 115 ft | 11 kts | 354° |
| 2026-05-07 20:51 | 41.42551 | 19.71499 | 119 ft | 11 kts | 354° |
| 2026-05-07 20:51 | 41.42628 | 19.71490 | 100 ft | 10 kts | 358° |
| 2026-05-07 20:52 | 41.42664 | 19.71562 | 116 ft | 11 kts | 84° |
| 2026-05-07 20:52 | 41.42671 | 19.71669 | 118 ft | 12 kts | 84° |
| 2026-05-07 20:52 | 41.42680 | 19.71771 | 117 ft | 11 kts | 83° |
| 2026-05-07 20:52 | 41.42681 | 19.71872 | 117 ft | 11 kts | 111° |
| 2026-05-07 20:53 | 41.42609 | 19.71904 | 117 ft | 13 kts | 174° |
| 2026-05-07 20:53 | 41.42413 | 19.71931 | 120 ft | 62 kts | 174° |
| 2026-05-07 20:53 | 41.41735 | 19.72022 | 124 ft | 132 kts | 174° |
| 2026-05-07 20:53 | 41.40644 | 19.72177 | 279 ft | 169 kts | 173° |
| 2026-05-07 20:54 | 41.39525 | 19.72343 | 1090 ft | 164 kts | 174° |
| 2026-05-07 20:54 | 41.38374 | 19.72494 | 1794 ft | 167 kts | 174° |
| 2026-05-07 20:54 | 41.37171 | 19.72647 | 2275 ft | 183 kts | 173° |
| 2026-05-07 20:54 | 41.35831 | 19.72822 | 2546 ft | 204 kts | 173° |
| 2026-05-07 20:55 | 41.34343 | 19.73016 | 2772 ft | 226 kts | 173° |
| 2026-05-07 20:55 | 41.32697 | 19.73232 | 3025 ft | 249 kts | 173° |
| 2026-05-07 20:55 | 41.30915 | 19.73466 | 3611 ft | 260 kts | 173° |
| 2026-05-07 20:55 | 41.29111 | 19.73703 | 4506 ft | 260 kts | 174° |
| 2026-05-07 20:56 | 41.27316 | 19.73942 | 5453 ft | 258 kts | 174° |
| 2026-05-07 20:56 | 41.25538 | 19.73849 | 6333 ft | 259 kts | 197° |
| 2026-05-07 20:56 | 41.24062 | 19.72490 | 7107 ft | 267 kts | 230° |
| 2026-05-07 20:56 | 41.23395 | 19.70169 | 7838 ft | 280 kts | 263° |
| 2026-05-07 20:57 | 41.23805 | 19.67613 | 8531 ft | 293 kts | 296° |
| 2026-05-07 20:57 | 41.25226 | 19.65646 | 9278 ft | 303 kts | 329° |
| 2026-05-07 20:57 | 41.27235 | 19.64747 | 10042 ft | 309 kts | 349° |
| 2026-05-07 20:57 | 41.29415 | 19.64441 | 10448 ft | 326 kts | 355° |
| 2026-05-07 20:58 | 41.31729 | 19.64271 | 10639 ft | 348 kts | 355° |
| 2026-05-07 20:58 | 41.34173 | 19.64012 | 11121 ft | 357 kts | 352° |
| 2026-05-07 20:58 | 41.36649 | 19.63579 | 11790 ft | 360 kts | 349° |
| 2026-05-07 20:58 | 41.39126 | 19.62988 | 12490 ft | 363 kts | 346° |
| 2026-05-07 20:59 | 41.41600 | 19.62286 | 13192 ft | 365 kts | 345° |
| 2026-05-07 20:59 | 41.44092 | 19.61518 | 13879 ft | 368 kts | 343° |
| 2026-05-07 20:59 | 41.46593 | 19.60723 | 14504 ft | 371 kts | 343° |
| 2026-05-07 20:59 | 41.49113 | 19.59929 | 15123 ft | 374 kts | 344° |
| 2026-05-07 21:00 | 41.51658 | 19.59146 | 15759 ft | 376 kts | 344° |
| 2026-05-07 21:00 | 41.54218 | 19.58376 | 16411 ft | 379 kts | 344° |
| 2026-05-07 21:00 | 41.56802 | 19.57611 | 17065 ft | 381 kts | 345° |
| 2026-05-07 21:00 | 41.59401 | 19.56844 | 17704 ft | 384 kts | 345° |
| 2026-05-07 21:01 | 41.62015 | 19.56072 | 18324 ft | 386 kts | 345° |
| 2026-05-07 21:01 | 41.64646 | 19.55292 | 18860 ft | 388 kts | 345° |
| 2026-05-07 21:01 | 41.67289 | 19.54503 | 19407 ft | 391 kts | 344° |
| 2026-05-07 21:01 | 41.69950 | 19.53709 | 19943 ft | 393 kts | 344° |
| 2026-05-07 21:02 | 41.72627 | 19.52910 | 20496 ft | 396 kts | 344° |
| 2026-05-07 21:02 | 41.75326 | 19.52105 | 21036 ft | 398 kts | 344° |
| 2026-05-07 21:02 | 41.78039 | 19.51293 | 21570 ft | 401 kts | 344° |
| 2026-05-07 21:02 | 41.80772 | 19.50473 | 22105 ft | 404 kts | 344° |
| 2026-05-07 21:03 | 41.83523 | 19.49645 | 22628 ft | 406 kts | 344° |
| 2026-05-07 21:03 | 41.86289 | 19.48813 | 23144 ft | 409 kts | 344° |
| 2026-05-07 21:03 | 41.89080 | 19.47976 | 23641 ft | 412 kts | 344° |
| 2026-05-07 21:03 | 41.91884 | 19.47135 | 24056 ft | 414 kts | 344° |
| 2026-05-07 21:04 | 41.94702 | 19.46289 | 24468 ft | 416 kts | 343° |
| 2026-05-07 21:04 | 41.97536 | 19.45427 | 24892 ft | 418 kts | 341° |
| 2026-05-07 21:04 | 42.00297 | 19.44229 | 25279 ft | 417 kts | 336° |
| 2026-05-07 21:04 | 42.03045 | 19.42931 | 25685 ft | 419 kts | 336° |
| 2026-05-07 21:05 | 42.05800 | 19.41622 | 26096 ft | 421 kts | 336° |
| 2026-05-07 21:05 | 42.08567 | 19.40304 | 26484 ft | 423 kts | 336° |
| 2026-05-07 21:05 | 42.11350 | 19.38974 | 26877 ft | 425 kts | 335° |
| 2026-05-07 21:05 | 42.14142 | 19.37640 | 27253 ft | 427 kts | 335° |
| 2026-05-07 21:06 | 42.16948 | 19.36300 | 27663 ft | 429 kts | 335° |
| 2026-05-07 21:06 | 42.19766 | 19.34956 | 28051 ft | 431 kts | 335° |
| 2026-05-07 21:06 | 42.22603 | 19.33604 | 28417 ft | 433 kts | 335° |
| 2026-05-07 21:06 | 42.25437 | 19.32228 | 28804 ft | 434 kts | 334° |
| 2026-05-07 21:07 | 42.28273 | 19.30808 | 29176 ft | 435 kts | 334° |
| 2026-05-07 21:07 | 42.31109 | 19.29357 | 29532 ft | 437 kts | 333° |
| 2026-05-07 21:07 | 42.33956 | 19.27887 | 29884 ft | 438 kts | 333° |
| 2026-05-07 21:07 | 42.36763 | 19.26431 | 30211 ft | 440 kts | 333° |
| 2026-05-07 21:08 | 42.39524 | 19.24684 | 30528 ft | 435 kts | 324° |
| 2026-05-07 21:08 | 42.42091 | 19.22543 | 30859 ft | 434 kts | 322° |
| 2026-05-07 21:08 | 42.44656 | 19.20368 | 31177 ft | 435 kts | 322° |
| 2026-05-07 21:08 | 42.47262 | 19.18169 | 31490 ft | 436 kts | 322° |
| 2026-05-07 21:09 | 42.49838 | 19.16005 | 31909 ft | 435 kts | 322° |
| 2026-05-07 21:09 | 42.52402 | 19.13852 | 32339 ft | 433 kts | 322° |
| 2026-05-07 21:09 | 42.54920 | 19.11733 | 32776 ft | 431 kts | 322° |
| 2026-05-07 21:09 | 42.57456 | 19.09588 | 33208 ft | 429 kts | 322° |
| 2026-05-07 21:10 | 42.59980 | 19.07446 | 33643 ft | 426 kts | 322° |
| 2026-05-07 21:10 | 42.62488 | 19.05313 | 34119 ft | 424 kts | 322° |
| 2026-05-07 21:10 | 42.64981 | 19.03192 | 34514 ft | 422 kts | 322° |
| 2026-05-07 21:10 | 42.67465 | 19.01081 | 34873 ft | 421 kts | 321° |
| 2026-05-07 21:11 | 42.69946 | 18.98973 | 35211 ft | 420 kts | 321° |
| 2026-05-07 21:11 | 42.72421 | 18.96870 | 35547 ft | 419 kts | 321° |
| 2026-05-07 21:11 | 42.77358 | 18.92662 | 36087 ft | 418 kts | 321° |
| 2026-05-07 21:12 | 42.82110 | 18.88232 | 36127 ft | 411 kts | 317° |
| 2026-05-07 21:12 | 42.86670 | 18.83578 | 36130 ft | 410 kts | 316° |
| 2026-05-07 21:13 | 42.91240 | 18.78896 | 36131 ft | 411 kts | 317° |
| 2026-05-07 21:13 | 42.95850 | 18.74265 | 36130 ft | 412 kts | 317° |
| 2026-05-07 21:14 | 43.00482 | 18.69654 | 36131 ft | 412 kts | 317° |
| 2026-05-07 21:14 | 43.05121 | 18.65026 | 36134 ft | 413 kts | 317° |
| 2026-05-07 21:15 | 43.09748 | 18.60380 | 36155 ft | 413 kts | 316° |
| 2026-05-07 21:15 | 43.14374 | 18.55722 | 36152 ft | 413 kts | 316° |
| 2026-05-07 21:16 | 43.19050 | 18.51132 | 36141 ft | 414 kts | 318° |
| 2026-05-07 21:16 | 43.23776 | 18.46608 | 36140 ft | 414 kts | 318° |
| 2026-05-07 21:17 | 43.28506 | 18.42067 | 36159 ft | 415 kts | 317° |
| 2026-05-07 21:17 | 43.33214 | 18.37511 | 36145 ft | 414 kts | 317° |
| 2026-05-07 21:18 | 43.37919 | 18.32923 | 36135 ft | 415 kts | 317° |
| 2026-05-07 21:18 | 43.42626 | 18.28329 | 36133 ft | 415 kts | 317° |
| 2026-05-07 21:19 | 43.47337 | 18.23736 | 36134 ft | 415 kts | 317° |
| 2026-05-07 21:19 | 43.52053 | 18.19132 | 36134 ft | 415 kts | 317° |
| 2026-05-07 21:20 | 43.56763 | 18.14519 | 36144 ft | 415 kts | 317° |
| 2026-05-07 21:20 | 43.61467 | 18.09899 | 36135 ft | 415 kts | 317° |
| 2026-05-07 21:21 | 43.66170 | 18.05276 | 36134 ft | 415 kts | 317° |
| 2026-05-07 21:21 | 43.70833 | 18.00677 | 36129 ft | 415 kts | 317° |
| 2026-05-07 21:22 | 43.75524 | 17.96044 | 36123 ft | 414 kts | 317° |
| 2026-05-07 21:22 | 43.80218 | 17.91399 | 36131 ft | 414 kts | 317° |
| 2026-05-07 21:23 | 43.84899 | 17.86763 | 36144 ft | 413 kts | 317° |
| 2026-05-07 21:23 | 43.89573 | 17.82123 | 36137 ft | 413 kts | 317° |
| 2026-05-07 21:24 | 43.94244 | 17.77480 | 36126 ft | 413 kts | 316° |
| 2026-05-07 21:24 | 43.98902 | 17.72825 | 36128 ft | 413 kts | 316° |
| 2026-05-07 21:25 | 44.03560 | 17.68164 | 36138 ft | 413 kts | 316° |
| 2026-05-07 21:25 | 44.08219 | 17.63499 | 36151 ft | 413 kts | 316° |
| 2026-05-07 21:26 | 44.12888 | 17.58825 | 36141 ft | 413 kts | 316° |
| 2026-05-07 21:26 | 44.17550 | 17.54147 | 36133 ft | 413 kts | 316° |
| 2026-05-07 21:27 | 44.22213 | 17.49435 | 36144 ft | 414 kts | 316° |
| 2026-05-07 21:27 | 44.26971 | 17.44857 | 36138 ft | 416 kts | 319° |
| 2026-05-07 21:28 | 44.31838 | 17.40439 | 36146 ft | 417 kts | 320° |
| 2026-05-07 21:28 | 44.36706 | 17.36010 | 36131 ft | 418 kts | 319° |
| 2026-05-07 21:29 | 44.41549 | 17.31525 | 36122 ft | 417 kts | 319° |
| 2026-05-07 21:29 | 44.46379 | 17.27001 | 36115 ft | 418 kts | 319° |
| 2026-05-07 21:30 | 44.51214 | 17.22474 | 36106 ft | 418 kts | 319° |
| 2026-05-07 21:30 | 44.56026 | 17.17977 | 36118 ft | 419 kts | 319° |
| 2026-05-07 21:31 | 44.60881 | 17.13436 | 36106 ft | 420 kts | 319° |
| 2026-05-07 21:31 | 44.65735 | 17.08881 | 36095 ft | 420 kts | 319° |
| 2026-05-07 21:32 | 44.70588 | 17.04313 | 36105 ft | 420 kts | 319° |
| 2026-05-07 21:32 | 44.75436 | 16.99732 | 36093 ft | 421 kts | 319° |
| 2026-05-07 21:33 | 44.80308 | 16.95137 | 36088 ft | 421 kts | 319° |
| 2026-05-07 21:33 | 44.85169 | 16.90536 | 36103 ft | 421 kts | 319° |
| 2026-05-07 21:34 | 44.90032 | 16.85919 | 36098 ft | 421 kts | 319° |
| 2026-05-07 21:34 | 44.94896 | 16.81292 | 36102 ft | 422 kts | 319° |
| 2026-05-07 21:35 | 44.99760 | 16.76670 | 36092 ft | 422 kts | 320° |
| 2026-05-07 21:35 | 45.04644 | 16.72051 | 36088 ft | 422 kts | 320° |
| 2026-05-07 21:36 | 45.09521 | 16.67425 | 36098 ft | 422 kts | 320° |
| 2026-05-07 21:36 | 45.14399 | 16.62786 | 36092 ft | 422 kts | 319° |
| 2026-05-07 21:37 | 45.19270 | 16.58136 | 36094 ft | 422 kts | 320° |
| 2026-05-07 21:37 | 45.24153 | 16.53476 | 36088 ft | 423 kts | 320° |
| 2026-05-07 21:38 | 45.29030 | 16.48802 | 36083 ft | 423 kts | 320° |
| 2026-05-07 21:38 | 45.33872 | 16.44156 | 36102 ft | 423 kts | 319° |
| 2026-05-07 21:39 | 45.38747 | 16.39471 | 36109 ft | 423 kts | 320° |
| 2026-05-07 21:39 | 45.43617 | 16.34780 | 36094 ft | 423 kts | 320° |
| 2026-05-07 21:40 | 45.47706 | 16.30836 | 36087 ft | 423 kts | 320° |
| 2026-05-07 21:40 | 45.52573 | 16.26128 | 36081 ft | 423 kts | 319° |
| 2026-05-07 21:41 | 45.57442 | 16.21398 | 36084 ft | 423 kts | 319° |
| 2026-05-07 21:41 | 45.62313 | 16.16667 | 36090 ft | 423 kts | 319° |
| 2026-05-07 21:42 | 45.67186 | 16.11928 | 36082 ft | 423 kts | 319° |
| 2026-05-07 21:42 | 45.72048 | 16.07179 | 36104 ft | 423 kts | 319° |
| 2026-05-07 21:43 | 45.76903 | 16.02426 | 36104 ft | 423 kts | 319° |
| 2026-05-07 21:43 | 45.81759 | 15.97674 | 36101 ft | 422 kts | 319° |
| 2026-05-07 21:44 | 45.86577 | 15.92939 | 36111 ft | 423 kts | 319° |
| 2026-05-07 21:44 | 45.91463 | 15.88137 | 36102 ft | 423 kts | 319° |
| 2026-05-07 21:45 | 45.96290 | 15.83383 | 36098 ft | 423 kts | 319° |
| 2026-05-07 21:45 | 46.01144 | 15.78583 | 36096 ft | 424 kts | 319° |
| 2026-05-07 21:46 | 46.05994 | 15.73770 | 36096 ft | 424 kts | 319° |
| 2026-05-07 21:46 | 46.10845 | 15.68952 | 36109 ft | 424 kts | 319° |
| 2026-05-07 21:47 | 46.15713 | 15.64113 | 36098 ft | 425 kts | 319° |
| 2026-05-07 21:47 | 46.20456 | 15.59072 | 36090 ft | 423 kts | 315° |
| 2026-05-07 21:48 | 46.24988 | 15.53688 | 36088 ft | 422 kts | 314° |
| 2026-05-07 21:48 | 46.29488 | 15.48246 | 36095 ft | 422 kts | 314° |
| 2026-05-07 21:49 | 46.34038 | 15.42857 | 36118 ft | 423 kts | 315° |
| 2026-05-07 21:49 | 46.38613 | 15.37488 | 36125 ft | 423 kts | 315° |
| 2026-05-07 21:50 | 46.43189 | 15.32115 | 36112 ft | 423 kts | 315° |
| 2026-05-07 21:50 | 46.47754 | 15.26726 | 36112 ft | 423 kts | 315° |
| 2026-05-07 21:51 | 46.52316 | 15.21313 | 36107 ft | 423 kts | 315° |
| 2026-05-07 21:51 | 46.56872 | 15.15905 | 36114 ft | 423 kts | 315° |
| 2026-05-07 21:52 | 46.61424 | 15.10478 | 36132 ft | 423 kts | 315° |
| 2026-05-07 21:52 | 46.65975 | 15.05041 | 36125 ft | 423 kts | 315° |
| 2026-05-07 21:53 | 46.70521 | 14.99611 | 36122 ft | 423 kts | 315° |
| 2026-05-07 21:53 | 46.75033 | 14.94207 | 36125 ft | 423 kts | 315° |
| 2026-05-07 21:54 | 46.79573 | 14.88754 | 36125 ft | 423 kts | 315° |
| 2026-05-07 21:54 | 46.84103 | 14.83301 | 36147 ft | 422 kts | 315° |
| 2026-05-07 21:55 | 46.88623 | 14.77839 | 36118 ft | 421 kts | 315° |
| 2026-05-07 21:55 | 46.93134 | 14.72377 | 36115 ft | 421 kts | 315° |
| 2026-05-07 21:56 | 46.97643 | 14.66910 | 36119 ft | 421 kts | 315° |
| 2026-05-07 21:56 | 47.02151 | 14.61427 | 36123 ft | 421 kts | 315° |
| 2026-05-07 21:57 | 47.06663 | 14.55937 | 36134 ft | 422 kts | 315° |
| 2026-05-07 21:57 | 47.11179 | 14.50425 | 36148 ft | 423 kts | 315° |
| 2026-05-07 21:58 | 47.15702 | 14.44904 | 36138 ft | 423 kts | 315° |
| 2026-05-07 21:58 | 47.20226 | 14.39356 | 36135 ft | 423 kts | 315° |
| 2026-05-07 21:59 | 47.24744 | 14.33798 | 36138 ft | 423 kts | 315° |
| 2026-05-07 21:59 | 47.29262 | 14.28224 | 36140 ft | 424 kts | 315° |
| 2026-05-07 22:00 | 47.33780 | 14.22649 | 36166 ft | 423 kts | 315° |
| 2026-05-07 22:00 | 47.38297 | 14.17073 | 36156 ft | 423 kts | 315° |
| 2026-05-07 22:01 | 47.42808 | 14.11481 | 36150 ft | 424 kts | 315° |
| 2026-05-07 22:01 | 47.47314 | 14.05881 | 36144 ft | 423 kts | 315° |
| 2026-05-07 22:02 | 47.51784 | 14.00305 | 36140 ft | 423 kts | 315° |
| 2026-05-07 22:02 | 47.56280 | 13.94686 | 36138 ft | 423 kts | 315° |
| 2026-05-07 22:03 | 47.60776 | 13.89051 | 36153 ft | 423 kts | 315° |
| 2026-05-07 22:03 | 47.65276 | 13.83412 | 36137 ft | 424 kts | 315° |
| 2026-05-07 22:04 | 47.69782 | 13.77748 | 36132 ft | 424 kts | 315° |
| 2026-05-07 22:04 | 47.74282 | 13.72074 | 36125 ft | 424 kts | 315° |
| 2026-05-07 22:05 | 47.78782 | 13.66381 | 36127 ft | 425 kts | 315° |
| 2026-05-07 22:05 | 47.83279 | 13.60684 | 36141 ft | 425 kts | 315° |
| 2026-05-07 22:06 | 47.87780 | 13.54972 | 36138 ft | 425 kts | 315° |
| 2026-05-07 22:06 | 47.92238 | 13.49184 | 36130 ft | 423 kts | 311° |
| 2026-05-07 22:07 | 47.96348 | 13.42894 | 36122 ft | 423 kts | 310° |
| 2026-05-07 22:07 | 48.00452 | 13.36586 | 36121 ft | 424 kts | 310° |
| 2026-05-07 22:08 | 48.04552 | 13.30254 | 35841 ft | 423 kts | 310° |
| 2026-05-07 22:08 | 48.06597 | 13.27091 | 35600 ft | 422 kts | 310° |
| 2026-05-07 22:08 | 48.08632 | 13.23950 | 35359 ft | 420 kts | 310° |
| 2026-05-07 22:09 | 48.10659 | 13.20815 | 35119 ft | 417 kts | 310° |
| 2026-05-07 22:09 | 48.12664 | 13.17711 | 34817 ft | 413 kts | 310° |
| 2026-05-07 22:09 | 48.14653 | 13.14626 | 34377 ft | 410 kts | 310° |
| 2026-05-07 22:09 | 48.16627 | 13.11554 | 33897 ft | 407 kts | 310° |
| 2026-05-07 22:10 | 48.18579 | 13.08509 | 33436 ft | 403 kts | 310° |
| 2026-05-07 22:10 | 48.20513 | 13.05491 | 32995 ft | 399 kts | 310° |
| 2026-05-07 22:10 | 48.22426 | 13.02512 | 32526 ft | 395 kts | 311° |
| 2026-05-07 22:10 | 48.24471 | 12.99771 | 32058 ft | 394 kts | 317° |
| 2026-05-07 22:11 | 48.26571 | 12.97163 | 31605 ft | 390 kts | 317° |
| 2026-05-07 22:11 | 48.28649 | 12.94572 | 31156 ft | 387 kts | 317° |
| 2026-05-07 22:11 | 48.30714 | 12.91989 | 30704 ft | 384 kts | 317° |
| 2026-05-07 22:11 | 48.32761 | 12.89424 | 30264 ft | 382 kts | 317° |
| 2026-05-07 22:12 | 48.34793 | 12.86874 | 29782 ft | 379 kts | 317° |
| 2026-05-07 22:12 | 48.36806 | 12.84346 | 29371 ft | 375 kts | 317° |
| 2026-05-07 22:12 | 48.38769 | 12.81878 | 28941 ft | 371 kts | 317° |
| 2026-05-07 22:12 | 48.40770 | 12.79368 | 28535 ft | 368 kts | 317° |
| 2026-05-07 22:13 | 48.42726 | 12.76913 | 28131 ft | 365 kts | 317° |
| 2026-05-07 22:13 | 48.44642 | 12.74503 | 27742 ft | 362 kts | 317° |
| 2026-05-07 22:13 | 48.46563 | 12.72080 | 27360 ft | 359 kts | 317° |
| 2026-05-07 22:13 | 48.48491 | 12.69642 | 26972 ft | 355 kts | 317° |
| 2026-05-07 22:14 | 48.50373 | 12.67267 | 26599 ft | 352 kts | 317° |
| 2026-05-07 22:14 | 48.52219 | 12.64933 | 26242 ft | 348 kts | 317° |
| 2026-05-07 22:14 | 48.54066 | 12.62592 | 25860 ft | 345 kts | 317° |
| 2026-05-07 22:14 | 48.55896 | 12.60276 | 25480 ft | 342 kts | 317° |
| 2026-05-07 22:15 | 48.57708 | 12.57977 | 25103 ft | 339 kts | 317° |
| 2026-05-07 22:15 | 48.59506 | 12.55692 | 24716 ft | 336 kts | 317° |
| 2026-05-07 22:15 | 48.61291 | 12.53426 | 24330 ft | 334 kts | 317° |
| 2026-05-07 22:15 | 48.63062 | 12.51176 | 23962 ft | 332 kts | 317° |
| 2026-05-07 22:16 | 48.64825 | 12.48933 | 23534 ft | 331 kts | 317° |
| 2026-05-07 22:16 | 48.66579 | 12.46700 | 23114 ft | 328 kts | 317° |
| 2026-05-07 22:16 | 48.68310 | 12.44492 | 22707 ft | 324 kts | 317° |
| 2026-05-07 22:16 | 48.70020 | 12.42305 | 22317 ft | 320 kts | 317° |
| 2026-05-07 22:17 | 48.71712 | 12.40139 | 21926 ft | 317 kts | 317° |
| 2026-05-07 22:17 | 48.73392 | 12.37989 | 21535 ft | 314 kts | 317° |
| 2026-05-07 22:17 | 48.75051 | 12.35863 | 21150 ft | 311 kts | 317° |
| 2026-05-07 22:17 | 48.76698 | 12.33751 | 20766 ft | 309 kts | 316° |
| 2026-05-07 22:18 | 48.78332 | 12.31656 | 20386 ft | 307 kts | 316° |
| 2026-05-07 22:18 | 48.81568 | 12.27504 | 19632 ft | 303 kts | 316° |
| 2026-05-07 22:18 | 48.83175 | 12.25447 | 19260 ft | 301 kts | 316° |
| 2026-05-07 22:19 | 48.84767 | 12.23400 | 18881 ft | 300 kts | 316° |
| 2026-05-07 22:19 | 48.86356 | 12.21349 | 18510 ft | 299 kts | 316° |
| 2026-05-07 22:19 | 48.87933 | 12.19310 | 18116 ft | 297 kts | 316° |
| 2026-05-07 22:19 | 48.89502 | 12.17277 | 17731 ft | 295 kts | 316° |
| 2026-05-07 22:20 | 48.91058 | 12.15267 | 17365 ft | 293 kts | 317° |
| 2026-05-07 22:20 | 48.92607 | 12.13272 | 17000 ft | 291 kts | 317° |
| 2026-05-07 22:20 | 48.94145 | 12.11293 | 16652 ft | 289 kts | 317° |
| 2026-05-07 22:20 | 48.95675 | 12.09313 | 16277 ft | 288 kts | 317° |
| 2026-05-07 22:21 | 48.97194 | 12.07341 | 15914 ft | 287 kts | 317° |
| 2026-05-07 22:21 | 48.98708 | 12.05370 | 15565 ft | 286 kts | 317° |
| 2026-05-07 22:21 | 49.00215 | 12.03409 | 15202 ft | 285 kts | 317° |
| 2026-05-07 22:21 | 49.01719 | 12.01451 | 14850 ft | 284 kts | 317° |
| 2026-05-07 22:22 | 49.03221 | 11.99500 | 14494 ft | 283 kts | 317° |
| 2026-05-07 22:22 | 49.04720 | 11.97551 | 14141 ft | 282 kts | 317° |
| 2026-05-07 22:22 | 49.06211 | 11.95610 | 13777 ft | 282 kts | 318° |
| 2026-05-07 22:22 | 49.07701 | 11.93673 | 13406 ft | 280 kts | 318° |
| 2026-05-07 22:23 | 49.09180 | 11.91748 | 13057 ft | 279 kts | 317° |
| 2026-05-07 22:23 | 49.10647 | 11.89829 | 12714 ft | 277 kts | 317° |
| 2026-05-07 22:23 | 49.12103 | 11.87920 | 12384 ft | 275 kts | 317° |
| 2026-05-07 22:23 | 49.13552 | 11.86023 | 12031 ft | 274 kts | 317° |
| 2026-05-07 22:24 | 49.14996 | 11.84136 | 11700 ft | 272 kts | 317° |
| 2026-05-07 22:24 | 49.16431 | 11.82262 | 11352 ft | 271 kts | 317° |
| 2026-05-07 22:24 | 49.17858 | 11.80397 | 11019 ft | 269 kts | 317° |
| 2026-05-07 22:24 | 49.19279 | 11.78538 | 10680 ft | 268 kts | 317° |
| 2026-05-07 22:25 | 49.20216 | 11.77311 | 10456 ft | 268 kts | 316° |
| 2026-05-07 22:25 | 49.21625 | 11.75460 | 10116 ft | 266 kts | 316° |
| 2026-05-07 22:25 | 49.23499 | 11.72993 | 9661 ft | 265 kts | 316° |
| 2026-05-07 22:25 | 49.24425 | 11.71776 | 9435 ft | 264 kts | 316° |
| 2026-05-07 22:26 | 49.25811 | 11.69954 | 9104 ft | 261 kts | 316° |
| 2026-05-07 22:26 | 49.27184 | 11.68149 | 8777 ft | 259 kts | 317° |
| 2026-05-07 22:26 | 49.28547 | 11.66355 | 8454 ft | 258 kts | 317° |
| 2026-05-07 22:26 | 49.29902 | 11.64568 | 8139 ft | 256 kts | 317° |
| 2026-05-07 22:27 | 49.31240 | 11.62796 | 7814 ft | 254 kts | 317° |
| 2026-05-07 22:27 | 49.32574 | 11.61026 | 7493 ft | 252 kts | 317° |
| 2026-05-07 22:27 | 49.33896 | 11.59274 | 7177 ft | 251 kts | 317° |
| 2026-05-07 22:27 | 49.35214 | 11.57526 | 6862 ft | 250 kts | 317° |
| 2026-05-07 22:28 | 49.36530 | 11.55784 | 6537 ft | 249 kts | 317° |
| 2026-05-07 22:28 | 49.37839 | 11.54052 | 6214 ft | 248 kts | 317° |
| 2026-05-07 22:28 | 49.39141 | 11.52331 | 5966 ft | 244 kts | 318° |
| 2026-05-07 22:28 | 49.40401 | 11.50661 | 5814 ft | 235 kts | 317° |
| 2026-05-07 22:29 | 49.41608 | 11.49059 | 5713 ft | 224 kts | 317° |
| 2026-05-07 22:29 | 49.42778 | 11.47503 | 5616 ft | 221 kts | 317° |
| 2026-05-07 22:29 | 49.43936 | 11.45958 | 5517 ft | 220 kts | 317° |
| 2026-05-07 22:29 | 49.45092 | 11.44419 | 5423 ft | 220 kts | 318° |
| 2026-05-07 22:30 | 49.46102 | 11.42679 | 5325 ft | 219 kts | 299° |
| 2026-05-07 22:30 | 49.46601 | 11.40497 | 5105 ft | 217 kts | 279° |
| 2026-05-07 22:30 | 49.46827 | 11.38227 | 4850 ft | 212 kts | 279° |
| 2026-05-07 22:30 | 49.47050 | 11.36007 | 4546 ft | 208 kts | 279° |
| 2026-05-07 22:31 | 49.47270 | 11.33828 | 4264 ft | 204 kts | 279° |
| 2026-05-07 22:31 | 49.47483 | 11.31724 | 4011 ft | 193 kts | 279° |
| 2026-05-07 22:31 | 49.47683 | 11.29735 | 3737 ft | 184 kts | 279° |
| 2026-05-07 22:31 | 49.47869 | 11.27887 | 3504 ft | 166 kts | 279° |
| 2026-05-07 22:32 | 49.48040 | 11.26180 | 3283 ft | 157 kts | 279° |
| 2026-05-07 22:32 | 49.48201 | 11.24583 | 3078 ft | 148 kts | 279° |
| 2026-05-07 22:32 | 49.48355 | 11.23042 | 2865 ft | 144 kts | 280° |
| 2026-05-07 22:32 | 49.48506 | 11.21536 | 2671 ft | 143 kts | 279° |
| 2026-05-07 22:33 | 49.48656 | 11.20029 | 2477 ft | 142 kts | 279° |
| 2026-05-07 22:33 | 49.48806 | 11.18529 | 2279 ft | 142 kts | 279° |
| 2026-05-07 22:33 | 49.48955 | 11.17034 | 2089 ft | 141 kts | 279° |
| 2026-05-07 22:33 | 49.49104 | 11.15541 | 1876 ft | 141 kts | 278° |
| 2026-05-07 22:34 | 49.49249 | 11.14058 | 1714 ft | 140 kts | 279° |
| 2026-05-07 22:34 | 49.49397 | 11.12576 | 1481 ft | 140 kts | 279° |
| 2026-05-07 22:34 | 49.49543 | 11.11104 | 1281 ft | 139 kts | 277° |
| 2026-05-07 22:34 | 49.49690 | 11.09640 | 1097 ft | 138 kts | 278° |
| 2026-05-07 22:35 | 49.49826 | 11.08247 | 1033 ft | 116 kts | 279° |
| 2026-05-07 22:35 | 49.49922 | 11.07284 | 1024 ft | 68 kts | 278° |
| 2026-05-07 22:35 | 49.49973 | 11.06755 | 1023 ft | 31 kts | 279° |
| 2026-05-07 22:35 | 49.49987 | 11.06534 | 1022 ft | 13 kts | 255° |
| 2026-05-07 22:36 | 49.49906 | 11.06483 | 1022 ft | 15 kts | 165° |
| 2026-05-07 22:36 | 49.49843 | 11.06516 | 1021 ft | 9 kts | 159° |
| 2026-05-07 22:36 | 49.49797 | 11.06589 | 1020 ft | 11 kts | 107° |
| 2026-05-07 22:36 | 49.49783 | 11.06715 | 1020 ft | 11 kts | 98° |
| 2026-05-07 22:37 | 49.49772 | 11.06833 | 1020 ft | 12 kts | 98° |
| 2026-05-07 22:37 | 49.49759 | 11.06964 | 1021 ft | 13 kts | 99° |
| 2026-05-07 22:37 | 49.49745 | 11.07103 | 1022 ft | 10 kts | 98° |
| 2026-05-07 22:37 | 49.49733 | 11.07195 | 1022 ft | 9 kts | 114° |
| 2026-05-07 22:38 | 49.49682 | 11.07228 | 1023 ft | 8 kts | 182° |
| 2026-05-07 22:38 | 49.49624 | 11.07213 | 1021 ft | 8 kts | 190° |
| 2026-05-07 22:38 | 49.49587 | 11.07202 | 1026 ft | 0 kts | 191° |
| 2026-05-07 22:38 | 49.49572 | 11.07200 | 1024 ft | 4 kts | 185° |
| 2026-05-07 22:39 | 49.49535 | 11.07194 | 1026 ft | 7 kts | 187° |
| 2026-05-07 22:39 | 49.49507 | 11.07131 | 1026 ft | 9 kts | 266° |
| 2026-05-07 22:39 | 49.49516 | 11.07033 | 1022 ft | 8 kts | 281° |
| 2026-05-07 22:39 | 49.49560 | 11.06996 | 1026 ft | 9 kts | 4° |
| 2026-05-07 22:40 | 49.49591 | 11.07068 | 1026 ft | 10 kts | 96° |
| 2026-05-07 22:40 | 49.49586 | 11.07176 | 1023 ft | 10 kts | 74° |
| 2026-05-07 22:40 | 49.49632 | 11.07246 | 1023 ft | 10 kts | 66° |
| 2026-05-07 22:40 | 49.49626 | 11.07354 | 1025 ft | 11 kts | 100° |
| 2026-05-07 22:41 | 49.49614 | 11.07471 | 1024 ft | 6 kts | 99° |
| 2026-05-07 22:41 | 49.49604 | 11.07517 | 1025 ft | 5 kts | 132° |
| 2026-05-07 22:41 | 49.49568 | 11.07523 | 1024 ft | 6 kts | 192° |
| 2026-05-07 22:41 | 49.49550 | 11.07518 | 1025 ft | 1 kts | 189° |
| 2026-05-07 22:42 | 49.49545 | 11.07517 | 1025 ft | 0 kts | 188° |